createdAt,value
2019-02-16T00:00:07.790Z,-1.16
2019-02-16T00:02:39.135Z,-1.13
2019-02-16T00:05:09.859Z,-1.08
2019-02-16T00:07:41.221Z,-1.06
2019-02-16T00:10:19.699Z,-1.08
2019-02-16T00:12:50.724Z,-1.04
2019-02-16T00:15:21.819Z,-1.01
2019-02-16T00:18:03.305Z,-1.00
2019-02-16T00:20:35.058Z,-0.92
2019-02-16T00:23:09.709Z,-0.85
2019-02-16T00:25:48.778Z,-0.87
2019-02-16T00:28:20.286Z,-0.95
2019-02-16T00:30:59.385Z,-1.00
2019-02-16T00:33:40.698Z,-1.18
2019-02-16T00:36:17.270Z,-1.36
2019-02-16T00:38:48.144Z,-1.35
2019-02-16T00:41:21.813Z,-1.28
2019-02-16T00:43:52.518Z,-1.36
2019-02-16T00:46:23.954Z,-1.34
2019-02-16T00:48:55.031Z,-1.30
2019-02-16T00:51:26.346Z,-1.29
2019-02-16T00:53:57.027Z,-1.30
2019-02-16T00:56:28.604Z,-1.35
2019-02-16T00:59:00.356Z,-1.41
2019-02-16T01:01:32.057Z,-1.38
2019-02-16T01:04:03.102Z,-1.36
2019-02-16T01:07:12.316Z,-1.32
2019-02-16T01:09:43.946Z,-1.27
2019-02-16T01:12:15.255Z,-1.27
2019-02-16T01:14:46.584Z,-1.25
2019-02-16T01:17:17.918Z,-1.28
2019-02-16T01:19:48.939Z,-1.40
2019-02-16T01:22:20.291Z,-1.57
2019-02-16T01:25:07.910Z,-1.53
2019-02-16T01:27:38.944Z,-1.43
2019-02-16T01:30:12.057Z,-1.37
2019-02-16T01:32:43.225Z,-1.41
2019-02-16T01:35:14.556Z,-1.44
2019-02-16T01:37:46.007Z,-1.52
2019-02-16T01:40:17.416Z,-1.52
2019-02-16T01:42:48.486Z,-1.60
2019-02-16T01:45:20.124Z,-1.70
2019-02-16T01:47:51.607Z,-1.83
2019-02-16T01:50:23.292Z,-1.85
2019-02-16T01:52:54.800Z,-1.74
2019-02-16T01:55:26.148Z,-1.65
2019-02-16T01:57:58.006Z,-1.72
2019-02-16T02:00:29.315Z,-1.62
2019-02-16T03:01:52.895Z,-1.97
2019-02-16T03:04:24.492Z,-1.92
2019-02-16T03:06:56.151Z,-1.99
2019-02-16T03:09:27.844Z,-1.97
2019-02-16T03:11:59.216Z,-1.98
2019-02-16T03:14:30.538Z,-2.08
2019-02-16T03:17:02.217Z,-2.18
2019-02-16T03:19:34.614Z,-2.25
2019-02-16T03:22:05.957Z,-2.34
2019-02-16T03:24:37.293Z,-2.35
2019-02-16T03:27:31.716Z,-2.28
2019-02-16T03:30:31.721Z,-2.34
2019-02-16T03:33:36.512Z,-2.32
2019-02-16T03:36:56.648Z,-2.53
2019-02-16T03:39:32.498Z,-2.64
2019-02-16T03:42:03.539Z,-2.56
2019-02-16T03:44:35.258Z,-2.43
2019-02-16T03:47:06.785Z,-2.37
2019-02-16T03:49:38.206Z,-2.24
2019-02-16T03:52:13.829Z,-2.23
2019-02-16T03:54:43.027Z,-2.28
2019-02-16T03:57:13.954Z,-2.26
2019-02-16T03:59:48.702Z,-2.23
2019-02-16T04:02:20.066Z,-2.18
2019-02-16T04:04:52.089Z,-2.18
2019-02-16T04:07:24.192Z,-2.19
2019-02-16T04:09:55.773Z,-2.17
2019-02-16T04:12:27.430Z,-2.19
2019-02-16T04:14:58.838Z,-2.25
2019-02-16T04:17:30.174Z,-2.26
2019-02-16T04:20:01.875Z,-2.17
2019-02-16T04:22:32.535Z,-2.07
2019-02-16T04:25:03.649Z,-2.08
2019-02-16T04:27:35.115Z,-2.06
2019-02-16T04:30:12.435Z,-2.14
2019-02-16T04:32:44.158Z,-2.29
2019-02-16T04:35:15.458Z,-2.33
2019-02-16T04:37:47.135Z,-2.47
2019-02-16T04:40:18.874Z,-2.60
2019-02-16T04:42:49.970Z,-2.68
2019-02-16T04:45:21.583Z,-2.46
2019-02-16T04:47:53.599Z,-2.44
2019-02-16T04:50:25.234Z,-2.57
2019-02-16T04:52:56.604Z,-2.61
2019-02-16T04:55:27.712Z,-2.65
2019-02-16T04:57:59.139Z,-2.80
2019-02-16T05:00:30.252Z,-2.82
2019-02-16T05:03:02.290Z,-2.68
2019-02-16T05:05:33.987Z,-2.54
2019-02-16T05:08:05.252Z,-2.42
2019-02-16T05:10:36.297Z,-2.44
2019-02-16T05:13:07.917Z,-2.47
2019-02-16T05:15:39.892Z,-2.54
2019-02-16T05:18:11.259Z,-2.51
2019-02-16T05:20:42.284Z,-2.50
2019-02-16T05:23:12.991Z,-2.47
2019-02-16T05:25:44.291Z,-2.47
2019-02-16T05:28:15.650Z,-2.39
2019-02-16T05:30:47.329Z,-2.24
2019-02-16T05:33:19.047Z,-2.14
2019-02-16T05:35:49.760Z,-2.12
2019-02-16T05:39:06.351Z,-2.11
2019-02-16T05:41:37.757Z,-2.14
2019-02-16T05:44:08.876Z,-2.23
2019-02-16T05:46:40.215Z,-2.34
2019-02-16T05:49:11.524Z,-2.29
2019-02-16T05:51:43.664Z,-2.15
2019-02-16T05:54:15.444Z,-2.08
2019-02-16T05:56:46.501Z,-1.98
2019-02-16T05:59:17.195Z,-1.90
2019-02-16T06:01:53.778Z,-1.82
2019-02-16T06:04:22.473Z,-1.80
2019-02-16T06:06:54.284Z,-1.75
2019-02-16T06:09:25.636Z,-1.65
2019-02-16T06:11:57.036Z,-1.54
2019-02-16T06:14:28.606Z,-1.45
2019-02-16T06:17:00.098Z,-1.42
2019-02-16T06:19:31.138Z,-1.39
2019-02-16T06:23:06.808Z,-1.34
2019-02-16T06:25:40.709Z,-1.24
2019-02-16T06:28:12.208Z,-1.24
2019-02-16T06:30:43.619Z,-1.21
2019-02-16T06:33:18.433Z,-1.18
2019-02-16T06:35:56.101Z,-1.12
2019-02-16T06:38:27.901Z,-1.08
2019-02-16T06:40:59.160Z,-0.98
2019-02-16T06:43:30.756Z,-0.98
2019-02-16T06:46:01.402Z,-0.95
2019-02-16T06:48:33.094Z,-0.84
2019-02-16T06:51:04.459Z,-0.83
2019-02-16T06:53:35.992Z,-0.81
2019-02-16T06:56:15.488Z,-0.78
2019-02-16T06:58:46.531Z,-0.76
2019-02-16T07:01:18.485Z,-0.73
2019-02-16T07:03:49.209Z,-0.66
2019-02-16T07:06:20.927Z,-0.56
2019-02-16T07:08:52.249Z,-0.46
2019-02-16T07:11:23.592Z,-0.36
2019-02-16T07:13:55.741Z,-0.32
2019-02-16T07:17:13.899Z,-0.29
2019-02-16T07:19:49.030Z,-0.06
2019-02-16T07:22:20.073Z,-0.02
2019-02-16T07:24:51.740Z,0.02
2019-02-16T07:28:31.070Z,0.01
2019-02-16T07:31:01.773Z,0.12
2019-02-16T07:33:33.175Z,0.12
2019-02-16T07:36:04.215Z,0.15
2019-02-16T07:38:35.322Z,0.31
2019-02-16T07:41:49.847Z,0.28
2019-02-16T07:44:35.993Z,0.15
2019-02-16T07:47:18.946Z,0.32
2019-02-16T07:50:04.695Z,0.58
2019-02-16T07:52:54.621Z,0.33
2019-02-16T07:55:36.575Z,0.95
2019-02-16T07:58:57.046Z,0.85
2019-02-16T08:01:47.366Z,1.27
2019-02-16T08:04:43.082Z,1.65
2019-02-16T08:07:22.238Z,1.45
2019-02-16T08:10:18.396Z,1.57
2019-02-16T08:13:18.854Z,1.56
2019-02-16T08:16:02.703Z,1.86
2019-02-16T08:18:49.231Z,2.13
2019-02-16T08:21:38.318Z,2.46
2019-02-16T08:24:39.864Z,2.26
2019-02-16T08:27:35.522Z,2.76
2019-02-16T08:30:24.009Z,2.65
2019-02-16T08:33:19.088Z,2.49
2019-02-16T08:36:18.468Z,2.81
2019-02-16T08:39:27.118Z,3.01
2019-02-16T08:42:48.940Z,2.67
2019-02-16T08:45:40.935Z,2.60
2019-02-16T08:48:26.703Z,2.54
2019-02-16T08:51:18.666Z,2.54
2019-02-16T08:54:03.946Z,2.37
2019-02-16T08:57:10.316Z,2.31
2019-02-16T09:00:04.527Z,2.13
2019-02-16T09:02:52.658Z,1.97
2019-02-16T09:05:57.006Z,2.79
2019-02-16T09:08:56.684Z,3.25
2019-02-16T09:11:56.408Z,3.00
2019-02-16T09:14:53.056Z,2.52
2019-02-16T09:17:37.090Z,2.57
2019-02-16T09:20:27.898Z,3.29
2019-02-16T09:23:10.937Z,2.59
2019-02-16T09:26:04.815Z,2.36
2019-02-16T09:28:57.481Z,3.09
2019-02-16T09:31:50.348Z,2.91
2019-02-16T09:34:34.152Z,2.98
2019-02-16T09:37:24.752Z,3.85
2019-02-16T09:40:15.135Z,4.42
2019-02-16T09:43:04.390Z,5.19
2019-02-16T09:45:41.901Z,5.13
2019-02-16T09:48:30.513Z,5.73
2019-02-16T09:51:34.979Z,6.32
2019-02-16T09:54:27.683Z,5.70
2019-02-16T09:57:16.921Z,5.21
2019-02-16T09:59:54.183Z,5.21
2019-02-16T10:02:45.384Z,4.54
2019-02-16T10:05:44.443Z,5.10
2019-02-16T10:08:32.426Z,5.32
2019-02-16T10:11:12.997Z,6.44
2019-02-16T10:14:09.781Z,6.20
2019-02-16T10:17:00.279Z,6.68
2019-02-16T10:19:46.534Z,6.89
2019-02-16T10:22:32.195Z,7.63
2019-02-16T10:25:31.010Z,8.14
2019-02-16T10:28:20.073Z,8.29
2019-02-16T10:31:12.344Z,8.88
2019-02-16T10:34:05.946Z,9.27
2019-02-16T10:36:49.054Z,9.62
2019-02-16T10:39:33.455Z,9.10
2019-02-16T10:42:22.061Z,8.41
2019-02-16T10:45:27.484Z,9.16
2019-02-16T10:48:26.914Z,10.46
2019-02-16T10:51:05.405Z,9.31
2019-02-16T10:54:04.208Z,10.45
2019-02-16T10:56:52.465Z,9.45
2019-02-16T10:59:58.302Z,9.80
2019-02-16T11:03:02.410Z,10.74
2019-02-16T11:05:39.610Z,10.97
2019-02-16T11:08:28.672Z,12.00
2019-02-16T11:11:19.017Z,11.46
2019-02-16T11:14:07.026Z,11.41
2019-02-16T11:17:05.665Z,10.85
2019-02-16T11:19:58.552Z,11.82
2019-02-16T11:22:41.378Z,11.71
2019-02-16T11:25:34.604Z,10.92
2019-02-16T11:28:23.389Z,10.40
2019-02-16T11:31:18.262Z,10.91
2019-02-16T11:34:20.266Z,10.95
2019-02-16T11:36:55.870Z,11.67
2019-02-16T11:39:55.950Z,10.86
2019-02-16T11:42:39.608Z,12.15
2019-02-16T11:45:33.143Z,11.65
2019-02-16T11:48:28.664Z,13.32
2019-02-16T11:51:09.687Z,12.75
2019-02-16T11:53:48.514Z,13.18
2019-02-16T11:56:37.589Z,14.25
2019-02-16T11:59:21.842Z,14.37
2019-02-16T12:02:20.924Z,14.99
2019-02-16T12:05:14.306Z,14.98
2019-02-16T12:08:17.525Z,13.76
2019-02-16T12:11:05.527Z,13.19
2019-02-16T12:13:58.315Z,12.87
2019-02-16T12:16:58.621Z,12.53
2019-02-16T12:19:38.518Z,13.21
2019-02-16T12:22:34.685Z,12.76
2019-02-16T12:25:24.650Z,12.78
2019-02-16T12:28:22.300Z,14.58
2019-02-16T12:31:24.201Z,15.72
2019-02-16T12:34:17.526Z,15.59
2019-02-16T12:37:02.557Z,15.61
2019-02-16T12:40:01.371Z,16.47
2019-02-16T12:43:04.428Z,17.67
2019-02-16T12:46:17.258Z,17.00
2019-02-16T12:49:07.472Z,15.97
2019-02-16T12:51:51.047Z,17.07
2019-02-16T12:54:30.005Z,17.71
2019-02-16T12:57:06.470Z,18.39
2019-02-16T12:59:55.213Z,17.58
2019-02-16T13:02:51.848Z,16.64
2019-02-16T13:05:40.827Z,18.13
2019-02-16T13:08:44.067Z,19.00
2019-02-16T13:11:29.308Z,18.66
2019-02-16T13:14:18.671Z,19.39
2019-02-16T13:17:08.044Z,17.52
2019-02-16T13:20:02.117Z,19.14
2019-02-16T13:22:41.467Z,19.85
2019-02-16T13:25:37.474Z,20.30
2019-02-16T13:28:19.782Z,19.20
2019-02-16T13:31:09.652Z,19.03
2019-02-16T13:34:02.825Z,19.91
2019-02-16T13:36:40.056Z,20.03
2019-02-16T13:39:22.028Z,18.46
2019-02-16T13:42:12.047Z,19.26
2019-02-16T13:44:50.793Z,17.50
2019-02-16T13:47:36.194Z,17.15
2019-02-16T13:50:16.136Z,18.67
2019-02-16T13:52:53.714Z,17.49
2019-02-16T13:55:42.782Z,16.99
2019-02-16T13:58:36.062Z,17.90
2019-02-16T14:01:29.464Z,19.25
2019-02-16T14:04:37.521Z,17.79
2019-02-16T14:07:22.377Z,16.70
2019-02-16T14:10:30.833Z,17.05
2019-02-16T14:13:20.781Z,16.95
2019-02-16T14:16:05.974Z,17.87
2019-02-16T14:18:36.994Z,17.24
2019-02-16T14:21:09.087Z,17.94
2019-02-16T14:23:40.770Z,18.84
2019-02-16T14:26:12.086Z,18.17
2019-02-16T14:28:43.438Z,16.66
2019-02-16T14:31:16.711Z,16.92
2019-02-16T14:33:47.791Z,16.20
2019-02-16T14:36:19.450Z,15.54
2019-02-16T14:38:58.769Z,15.31
2019-02-16T14:41:30.484Z,15.59
2019-02-16T14:44:02.116Z,15.54
2019-02-16T14:46:33.192Z,16.06
2019-02-16T14:49:03.900Z,16.29
2019-02-16T14:51:34.572Z,16.11
2019-02-16T14:54:06.214Z,16.10
2019-02-16T14:56:37.548Z,16.32
2019-02-16T14:59:08.898Z,17.19
2019-02-16T15:01:40.267Z,17.94
2019-02-16T15:04:11.949Z,17.72
2019-02-16T15:06:42.954Z,17.24
2019-02-16T15:09:14.709Z,17.31
2019-02-16T15:11:46.384Z,18.08
2019-02-16T15:14:18.116Z,17.37
2019-02-16T15:16:49.811Z,15.82
2019-02-16T15:19:25.634Z,16.21
2019-02-16T15:21:56.827Z,16.20
2019-02-16T15:24:27.939Z,17.26
2019-02-16T15:26:59.270Z,17.88
2019-02-16T15:29:29.955Z,17.24
2019-02-16T15:32:03.317Z,17.24
2019-02-16T15:34:35.395Z,16.90
2019-02-16T15:37:06.402Z,15.91
2019-02-16T15:39:37.858Z,15.38
2019-02-16T15:42:09.209Z,16.74
2019-02-16T15:44:40.695Z,18.40
2019-02-16T15:47:12.121Z,19.26
2019-02-16T15:49:43.878Z,20.25
2019-02-16T15:52:15.266Z,19.44
2019-02-16T15:54:46.694Z,20.30
2019-02-16T15:57:17.395Z,21.26
2019-02-16T16:00:02.406Z,21.99
2019-02-16T16:02:33.922Z,22.51
2019-02-16T16:05:06.232Z,22.89
2019-02-16T16:07:38.883Z,22.71
2019-02-16T16:10:15.654Z,22.10
2019-02-16T16:12:58.673Z,21.76
2019-02-16T16:16:07.511Z,20.59
2019-02-16T16:19:03.938Z,19.35
2019-02-16T16:21:52.911Z,17.89
2019-02-16T16:24:55.270Z,16.29
2019-02-16T16:27:45.237Z,14.87
2019-02-16T16:30:40.326Z,13.29
2019-02-16T16:33:21.014Z,12.13
2019-02-16T16:36:05.384Z,11.37
2019-02-16T16:39:02.336Z,10.59
2019-02-16T16:41:51.135Z,9.81
2019-02-16T16:44:33.745Z,9.23
2019-02-16T16:47:23.924Z,8.80
2019-02-16T16:50:32.745Z,8.42
2019-02-16T16:53:46.516Z,7.96
2019-02-16T16:56:28.654Z,7.56
2019-02-16T16:59:12.495Z,7.22
2019-02-16T17:02:01.861Z,6.93
2019-02-16T17:04:52.256Z,6.67
2019-02-16T17:07:37.212Z,6.48
2019-02-16T17:10:25.837Z,6.25
2019-02-16T17:13:33.618Z,6.04
2019-02-16T17:19:39.257Z,5.73
2019-02-16T17:22:33.134Z,5.52
2019-02-16T17:25:22.409Z,5.34
2019-02-16T17:28:11.361Z,5.26
2019-02-16T17:30:51.516Z,5.12
2019-02-16T17:33:55.738Z,4.97
2019-02-16T17:36:46.113Z,4.81
2019-02-16T17:39:26.336Z,4.67
2019-02-16T17:42:31.780Z,4.56
2019-02-16T17:45:20.086Z,4.53
2019-02-16T17:48:03.511Z,4.44
2019-02-16T17:50:41.926Z,4.29
2019-02-16T17:53:31.913Z,4.16
2019-02-16T17:56:46.723Z,4.06
2019-02-16T17:59:24.569Z,3.92
2019-02-16T18:02:27.373Z,3.78
2019-02-16T18:05:21.376Z,3.73
2019-02-16T18:08:08.750Z,3.62
2019-02-16T18:10:55.984Z,3.55
2019-02-16T18:14:02.045Z,3.45
2019-02-16T18:16:39.329Z,3.35
2019-02-16T18:19:29.724Z,3.29
2019-02-16T18:22:22.945Z,3.18
2019-02-16T18:25:09.737Z,3.11
2019-02-16T18:28:12.090Z,3.08
2019-02-16T18:30:57.859Z,2.99
2019-02-16T18:33:47.240Z,2.87
2019-02-16T18:36:26.776Z,2.76
2019-02-16T18:39:05.543Z,2.62
2019-02-16T18:42:01.986Z,2.47
2019-02-16T18:45:11.045Z,2.44
2019-02-16T18:48:10.370Z,2.49
2019-02-16T18:51:03.336Z,2.51
2019-02-16T18:54:01.994Z,2.46
2019-02-16T18:56:50.689Z,2.37
2019-02-16T18:59:43.492Z,2.32
2019-02-16T19:02:29.074Z,2.26
2019-02-16T19:05:54.573Z,2.15
2019-02-16T19:08:44.137Z,2.08
2019-02-16T19:11:49.439Z,2.08
2019-02-16T19:14:37.982Z,1.98
2019-02-16T19:17:44.963Z,1.92
2019-02-16T19:20:48.464Z,1.90
2019-02-16T19:23:44.612Z,1.82
2019-02-16T19:26:41.278Z,1.70
2019-02-16T19:32:51.517Z,1.67
2019-02-16T19:35:39.815Z,1.56
2019-02-16T19:38:32.286Z,1.50
2019-02-16T19:41:32.321Z,1.39
2019-02-16T19:44:21.906Z,1.32
2019-02-16T19:47:12.501Z,1.27
2019-02-16T19:50:05.632Z,1.26
2019-02-16T19:53:01.974Z,1.21
2019-02-16T19:55:51.461Z,1.18
2019-02-16T19:58:41.475Z,1.11
2019-02-16T20:01:49.662Z,1.14
2019-02-16T20:04:42.181Z,1.18
2019-02-16T20:07:44.428Z,1.15
2019-02-16T20:10:33.767Z,1.08
2019-02-16T20:13:22.597Z,1.02
2019-02-16T20:16:21.382Z,0.99
2019-02-16T20:19:27.444Z,0.95
2019-02-16T20:22:23.383Z,0.88
2019-02-16T20:25:19.905Z,0.82
2019-02-16T20:28:07.942Z,0.77
2019-02-16T20:30:47.604Z,0.73
2019-02-16T20:33:37.563Z,0.71
2019-02-16T20:36:32.599Z,0.66
2019-02-16T20:39:21.216Z,0.66
2019-02-16T20:42:19.948Z,0.68
2019-02-16T20:45:19.300Z,0.67
2019-02-16T20:48:15.478Z,0.64
2019-02-16T20:51:05.435Z,0.60
2019-02-16T20:54:02.084Z,0.54
2019-02-16T20:56:44.491Z,0.53
2019-02-16T20:59:31.205Z,0.44
2019-02-16T21:02:30.401Z,0.41
2019-02-16T21:05:24.525Z,0.32
2019-02-16T21:08:11.200Z,0.31
2019-02-16T21:11:01.701Z,0.33
2019-02-16T21:13:38.177Z,0.28
2019-02-16T21:16:24.572Z,0.24
2019-02-16T21:19:28.954Z,0.22
2019-02-16T21:22:24.800Z,0.15
2019-02-16T21:25:20.358Z,0.10
2019-02-16T21:28:07.240Z,0.15
2019-02-16T21:30:56.609Z,0.17
2019-02-16T21:33:52.627Z,0.14
2019-02-16T21:36:35.865Z,0.14
2019-02-16T21:39:30.556Z,0.01
2019-02-16T21:42:13.584Z,-0.15
2019-02-16T21:45:02.967Z,-0.21
2019-02-16T21:47:53.269Z,-0.12
2019-02-16T21:50:40.252Z,-0.15
2019-02-16T21:53:36.370Z,-0.11
2019-02-16T21:56:15.403Z,-0.08
2019-02-16T21:59:19.009Z,-0.12
2019-02-16T22:02:02.933Z,-0.16
2019-02-16T22:04:49.633Z,-0.10
2019-02-16T22:07:52.064Z,-0.09
2019-02-16T22:10:48.491Z,-0.10
2019-02-16T22:13:20.436Z,-0.20
2019-02-16T22:15:51.493Z,-0.14
2019-02-16T22:18:23.569Z,-0.11
2019-02-16T22:20:54.960Z,-0.14
2019-02-16T22:23:26.057Z,-0.17
2019-02-16T22:25:57.297Z,-0.16
2019-02-16T22:28:31.200Z,-0.14
2019-02-16T22:31:01.476Z,-0.23
2019-02-16T22:33:32.449Z,-0.30
2019-02-16T22:36:03.507Z,-0.39
2019-02-16T22:38:34.921Z,-0.41
2019-02-16T22:41:24.601Z,-0.29
2019-02-16T22:43:55.891Z,-0.41
2019-02-16T22:46:27.042Z,-0.60
2019-02-16T22:48:58.742Z,-0.71
2019-02-16T22:51:30.183Z,-0.80
2019-02-16T22:54:01.884Z,-0.76
2019-02-16T22:56:33.560Z,-0.82
2019-02-16T22:59:05.415Z,-0.74
2019-02-16T23:01:36.310Z,-0.62
2019-02-16T23:04:07.781Z,-0.62
2019-02-16T23:06:38.414Z,-0.59
2019-02-16T23:09:21.563Z,-0.64
2019-02-16T23:11:53.008Z,-0.64
2019-02-16T23:14:24.450Z,-0.67
2019-02-16T23:17:00.171Z,-0.69
2019-02-16T23:19:31.746Z,-0.67
2019-02-16T23:22:03.568Z,-0.61
2019-02-16T23:24:33.883Z,-0.60
2019-02-16T23:27:05.232Z,-0.65
2019-02-16T23:29:36.192Z,-0.67
2019-02-16T23:32:08.397Z,-0.71
2019-02-16T23:34:40.235Z,-0.70
2019-02-16T23:37:11.326Z,-0.82
2019-02-16T23:39:43.265Z,-0.89
2019-02-16T23:42:14.271Z,-1.07
2019-02-16T23:44:47.162Z,-1.15
2019-02-16T23:47:37.080Z,-1.07
2019-02-16T23:50:08.685Z,-0.98
2019-02-16T23:52:39.931Z,-0.87
2019-02-16T23:55:11.003Z,-0.87
2019-02-16T23:57:41.626Z,-0.86
